Time;durP1;ratioP1;P1;durP2;ratioP2;P2;SDS_P1;SDS_P2;PMS_P1;PMS_P2;Temp;Humidity;BMP_temperature;BMP_pressure;BME280_temperature;BME280_humidity;BME280_pressure;Samples;Min_cycle;Max_cycle;Signal;HPM_P1;HPM_P2
2023/06/23 00:01:11;;;;;;;;;;;;;;;22.49;73.90;97806.97;5086458;28;20376;-61
2023/06/23 00:03:40;;;;;;;;;;;;;;;22.53;73.87;97800.63;5064782;28;19929;-61
2023/06/23 00:06:08;;;;;;;;;;;;;;;22.52;71.70;97810.13;5082338;28;19974;-61
2023/06/23 00:08:38;;;;;;;;;;;;;;;22.50;69.27;97813.28;5085081;28;19933;-61
2023/06/23 00:11:07;;;;;;;;;;;;;;;22.43;67.45;97811.31;5066147;28;19971;-61
2023/06/23 00:13:35;;;;;;;;;;;;;;;22.46;66.75;97818.81;5068513;28;19933;-61
2023/06/23 00:16:04;;;;;;;;;;;;;;;22.40;66.43;97825.13;5081279;28;19986;-61
2023/06/23 00:18:31;;;;;;;;;;;;;;;22.32;66.25;97834.59;5071832;28;20447;-60
2023/06/23 00:20:59;;;;;;;;;;;;;;;22.25;65.66;97834.56;5088520;28;20369;-60
2023/06/23 00:23:29;;;;;;;;;;;;;;;22.26;65.51;97833.38;5067352;28;19924;-61
2023/06/23 00:25:57;;;;;;;;;;;;;;;22.33;65.57;97836.19;5063585;28;19928;-61
2023/06/23 00:28:26;;;;;;;;;;;;;;;22.18;65.04;97835.34;5092154;28;20023;-61
2023/06/23 00:30:54;;;;;;;;;;;;;;;22.20;65.51;97855.09;5083553;28;20031;-61
2023/06/23 00:33:22;;;;;;;;;;;;;;;22.02;65.41;97843.94;5074924;28;19932;-60
2023/06/23 00:35:50;;;;;;;;;;;;;;;22.01;64.89;97847.13;5063741;28;19998;-61
2023/06/23 00:38:20;;;;;;;;;;;;;;;22.02;65.48;97843.16;5068062;28;19935;-61
2023/06/23 00:40:50;;;;;;;;;;;;;;;21.86;65.77;97852.56;5064203;28;19940;-61
2023/06/23 00:43:18;;;;;;;;;;;;;;;21.86;65.10;97849.00;5091189;28;19969;-60
2023/06/23 00:45:48;;;;;;;;;;;;;;;21.86;65.65;97849.81;5065587;28;20743;-61
2023/06/23 00:48:17;;;;;;;;;;;;;;;21.84;65.69;97849.41;5071358;28;19977;-61
2023/06/23 00:50:45;;;;;;;;;;;;;;;21.85;65.33;97839.13;5065772;28;19924;-61
2023/06/23 00:53:13;;;;;;;;;;;;;;;21.87;65.34;97845.84;5105477;28;19970;-61
2023/06/23 00:55:41;;;;;;;;;;;;;;;21.79;64.73;97838.72;5092455;28;19924;-61
2023/06/23 00:58:16;;;;;;;;;;;;;;;21.71;65.25;97829.56;5063152;28;19974;-61
2023/06/23 01:00:46;;;;;;;;;;;;;;;21.76;64.66;97828.41;5060303;28;19959;-61
2023/06/23 01:03:16;;;;;;;;;;;;;;;21.65;64.48;97841.38;5082041;28;19924;-61
2023/06/23 01:05:44;;;;;;;;;;;;;;;21.62;64.10;97847.69;5068645;28;19999;-60
2023/06/23 01:08:15;;;;;;;;;;;;;;;21.52;64.22;97849.22;5064228;28;20404;-61
2023/06/23 01:10:44;;;;;;;;;;;;;;;21.49;64.62;97851.94;5059022;28;19925;-61
2023/06/23 01:13:15;;;;;;;;;;;;;;;21.55;64.80;97853.97;5082004;28;19928;-61
2023/06/23 01:15:43;;;;;;;;;;;;;;;21.67;64.71;97861.13;5069724;28;19928;-61
2023/06/23 01:18:13;;;;;;;;;;;;;;;21.70;63.88;97855.63;5058571;28;20395;-61
2023/06/23 01:20:44;;;;;;;;;;;;;;;21.79;63.88;97852.53;5062871;28;19924;-61
2023/06/23 01:23:20;;;;;;;;;;;;;;;21.75;63.23;97850.94;5064804;28;19955;-61
2023/06/23 01:25:53;;;;;;;;;;;;;;;21.75;63.21;97846.19;5068751;28;20001;-61
2023/06/23 01:28:45;;;;;;;;;;;;;;;21.78;63.53;97850.94;5067303;28;19975;-61
2023/06/23 01:31:17;;;;;;;;;;;;;;;21.74;63.01;97863.97;5049700;28;19924;-61
2023/06/23 01:33:48;;;;;;;;;;;;;;;21.58;63.41;97852.41;5101296;28;19924;-60
2023/06/23 01:36:20;;;;;;;;;;;;;;;21.57;63.40;97850.81;5066333;28;19924;-62
2023/06/23 01:38:52;;;;;;;;;;;;;;;21.39;63.60;97850.69;5070660;28;19934;-61
2023/06/23 01:41:23;;;;;;;;;;;;;;;21.47;63.86;97857.88;5088796;28;19974;-61
2023/06/23 01:43:53;;;;;;;;;;;;;;;21.49;63.62;97854.72;5098535;28;20023;-61
2023/06/23 01:46:25;;;;;;;;;;;;;;;21.43;63.54;97855.06;5072109;28;19924;-61
2023/06/23 01:48:55;;;;;;;;;;;;;;;21.47;63.67;97851.56;5064544;28;19924;-61
2023/06/23 01:51:24;;;;;;;;;;;;;;;21.42;63.19;97845.19;5067155;28;19924;-61
2023/06/23 01:53:51;;;;;;;;;;;;;;;21.38;63.37;97849.13;5083670;28;20413;-61
2023/06/23 01:56:19;;;;;;;;;;;;;;;21.35;63.54;97836.84;5098746;28;19950;-61
2023/06/23 01:58:47;;;;;;;;;;;;;;;21.39;63.65;97845.97;5070746;28;20363;-61
2023/06/23 02:04:08;;;;;;;;;;;;;;;21.34;64.17;97832.50;5063894;28;19976;-61
2023/06/23 02:06:42;;;;;;;;;;;;;;;21.29;63.75;97835.59;5070461;28;20547;-61
2023/06/23 02:09:11;;;;;;;;;;;;;;;21.28;63.95;97845.06;5069276;28;20361;-61
2023/06/23 02:11:38;;;;;;;;;;;;;;;21.16;64.18;97843.41;5068314;28;20019;-61
2023/06/23 02:14:07;;;;;;;;;;;;;;;21.17;64.04;97841.44;5064492;28;19932;-61
2023/06/23 02:16:35;;;;;;;;;;;;;;;21.22;64.14;97841.06;5070841;28;19959;-61
2023/06/23 02:19:04;;;;;;;;;;;;;;;21.27;64.13;97843.47;5065714;28;19924;-61
2023/06/23 02:21:33;;;;;;;;;;;;;;;21.18;64.17;97838.28;5066467;28;19928;-60
2023/06/23 02:24:01;;;;;;;;;;;;;;;21.17;64.07;97844.19;5062992;28;20399;-61
2023/06/23 02:26:29;;;;;;;;;;;;;;;21.25;64.18;97836.75;5070487;28;19932;-61
2023/06/23 02:28:57;;;;;;;;;;;;;;;21.26;64.28;97825.31;5069043;28;19973;-61
2023/06/23 02:31:25;;;;;;;;;;;;;;;21.34;64.64;97843.56;5063902;28;20026;-61
2023/06/23 02:33:52;;;;;;;;;;;;;;;21.29;63.87;97835.59;5083264;28;19924;-60
2023/06/23 02:36:21;;;;;;;;;;;;;;;21.18;64.05;97852.09;5067389;28;20365;-60
2023/06/23 02:38:54;;;;;;;;;;;;;;;21.07;64.78;97851.22;5078946;28;19936;-61
2023/06/23 02:41:23;;;;;;;;;;;;;;;21.08;64.94;97844.50;5060980;28;19927;-61
2023/06/23 02:43:54;;;;;;;;;;;;;;;21.11;64.84;97834.69;5070253;28;19950;-60
2023/06/23 02:46:22;;;;;;;;;;;;;;;21.17;64.78;97838.66;5096136;28;20286;-61
2023/06/23 02:48:51;;;;;;;;;;;;;;;21.22;64.43;97840.28;5087783;28;19932;-60
2023/06/23 02:51:19;;;;;;;;;;;;;;;21.37;64.25;97845.56;5061752;28;20019;-61
2023/06/23 02:53:48;;;;;;;;;;;;;;;21.28;64.07;97842.28;5088556;28;19924;-61
2023/06/23 02:56:20;;;;;;;;;;;;;;;21.24;64.29;97844.22;5076784;28;19929;-61
2023/06/23 02:58:48;;;;;;;;;;;;;;;21.23;64.41;97847.38;5057067;28;19955;-61
2023/06/23 03:01:16;;;;;;;;;;;;;;;21.23;64.52;97850.16;5082596;28;19985;-61
2023/06/23 03:03:44;;;;;;;;;;;;;;;21.26;64.56;97852.94;5085565;28;19924;-61
2023/06/23 03:06:17;;;;;;;;;;;;;;;21.30;64.64;97859.31;5050858;28;19925;-60
2023/06/23 03:08:46;;;;;;;;;;;;;;;21.28;64.55;97861.63;5049370;28;19924;-60
2023/06/23 03:11:15;;;;;;;;;;;;;;;21.30;64.79;97866.81;5064958;28;19924;-60
2023/06/23 03:13:44;;;;;;;;;;;;;;;21.31;64.95;97862.88;5047075;28;19925;-61
2023/06/23 03:16:13;;;;;;;;;;;;;;;21.29;64.58;97874.28;5050131;28;19929;-61
2023/06/23 03:18:43;;;;;;;;;;;;;;;21.24;64.36;97884.88;5043012;28;19963;-61
2023/06/23 03:21:12;;;;;;;;;;;;;;;21.12;65.11;97902.56;5061391;28;20023;-61
2023/06/23 03:23:40;;;;;;;;;;;;;;;20.93;65.57;97909.88;5041418;28;19978;-60
2023/06/23 03:26:08;;;;;;;;;;;;;;;20.74;65.52;97909.28;5049345;28;19973;-60
2023/06/23 03:28:37;;;;;;;;;;;;;;;20.74;64.59;97907.31;5064258;28;19998;-61
2023/06/23 03:31:08;;;;;;;;;;;;;;;20.52;64.06;97911.03;5062263;28;19924;-61
2023/06/23 03:33:37;;;;;;;;;;;;;;;20.36;64.21;97906.47;5040046;28;19931;-61
2023/06/23 03:36:06;;;;;;;;;;;;;;;20.40;64.47;97912.84;5048959;28;19947;-61
2023/06/23 03:38:36;;;;;;;;;;;;;;;20.19;62.84;97912.56;5060447;28;19925;-61
2023/06/23 03:41:05;;;;;;;;;;;;;;;20.15;63.14;97914.47;5066825;28;19993;-60
2023/06/23 03:43:33;;;;;;;;;;;;;;;20.14;62.65;97915.66;5064328;28;20452;-60
2023/06/23 03:46:02;;;;;;;;;;;;;;;20.11;62.57;97916.41;5071894;28;19964;-61
2023/06/23 03:48:31;;;;;;;;;;;;;;;20.07;62.75;97918.31;5047435;28;19925;-60
2023/06/23 03:50:59;;;;;;;;;;;;;;;20.11;63.07;97908.13;5056320;28;20440;-61
2023/06/23 03:53:27;;;;;;;;;;;;;;;20.05;62.58;97926.16;5063606;28;20027;-60
2023/06/23 03:55:55;;;;;;;;;;;;;;;19.98;63.17;97917.81;5067996;28;19959;-61
2023/06/23 03:58:22;;;;;;;;;;;;;;;19.87;62.85;97914.91;5061197;28;19975;-61
2023/06/23 04:00:50;;;;;;;;;;;;;;;19.96;63.20;97920.13;5056855;28;20015;-61
2023/06/23 04:03:18;;;;;;;;;;;;;;;20.00;62.52;97921.75;5061905;28;20001;-60
2023/06/23 04:05:47;;;;;;;;;;;;;;;20.15;62.22;97925.50;5054282;28;19925;-61
2023/06/23 04:08:18;;;;;;;;;;;;;;;20.21;61.97;97920.47;5086858;28;19953;-61
2023/06/23 04:10:46;;;;;;;;;;;;;;;20.20;61.79;97918.88;5063935;28;20373;-60
2023/06/23 04:13:14;;;;;;;;;;;;;;;20.28;61.55;97915.81;5082159;28;19969;-61
2023/06/23 04:15:42;;;;;;;;;;;;;;;20.35;61.27;97921.44;5078258;28;19939;-60
2023/06/23 04:18:09;;;;;;;;;;;;;;;20.36;61.38;97916.72;5099592;28;20287;-62
2023/06/23 04:20:37;;;;;;;;;;;;;;;20.33;61.25;97918.25;5070217;28;19976;-60
2023/06/23 04:23:06;;;;;;;;;;;;;;;20.35;61.66;97921.44;5075911;28;19932;-60
2023/06/23 04:25:34;;;;;;;;;;;;;;;20.35;61.35;97920.66;5074788;28;19924;-61
2023/06/23 04:28:04;;;;;;;;;;;;;;;20.34;61.53;97919.84;5070851;28;20281;-61
2023/06/23 04:30:32;;;;;;;;;;;;;;;20.30;61.58;97920.97;5073189;28;19928;-61
2023/06/23 04:33:00;;;;;;;;;;;;;;;20.32;61.45;97924.94;5072289;28;20385;-61
2023/06/23 04:35:28;;;;;;;;;;;;;;;20.29;61.72;97927.66;5074942;28;19924;-61
2023/06/23 04:37:58;;;;;;;;;;;;;;;20.31;61.39;97928.88;5071417;28;20385;-60
2023/06/23 04:40:36;;;;;;;;;;;;;;;20.25;61.56;97927.63;5056064;28;19932;-58
2023/06/23 04:43:09;;;;;;;;;;;;;;;20.22;61.50;97927.56;5052896;28;19932;-59
2023/06/23 04:45:37;;;;;;;;;;;;;;;20.21;61.67;97942.53;5070857;28;19939;-60
2023/06/23 04:48:05;;;;;;;;;;;;;;;20.22;61.35;97944.91;5073476;28;19944;-59
2023/06/23 04:50:34;;;;;;;;;;;;;;;20.19;61.64;97945.66;5070053;28;19925;-59
2023/06/23 04:53:02;;;;;;;;;;;;;;;19.99;62.29;97947.75;5074887;28;19986;-59
2023/06/23 04:55:32;;;;;;;;;;;;;;;20.07;61.16;97954.94;5072974;28;19974;-59
2023/06/23 04:58:03;;;;;;;;;;;;;;;20.04;61.16;97957.69;5075187;28;20303;-59
2023/06/23 05:00:31;;;;;;;;;;;;;;;20.02;60.99;97963.53;5054882;28;19931;-59
2023/06/23 05:02:59;;;;;;;;;;;;;;;19.73;61.39;97961.53;5074557;28;19932;-59
2023/06/23 05:05:30;;;;;;;;;;;;;;;19.79;61.42;97971.09;5055764;28;19973;-59
2023/06/23 05:07:58;;;;;;;;;;;;;;;19.74;61.76;97966.69;5079472;28;19939;-59
2023/06/23 05:10:26;;;;;;;;;;;;;;;19.72;62.01;97962.72;5074382;28;19960;-60
2023/06/23 05:12:53;;;;;;;;;;;;;;;19.66;61.83;97972.47;5079138;28;19933;-59
2023/06/23 05:15:25;;;;;;;;;;;;;;;19.66;61.63;97970.50;5079884;28;19925;-60
2023/06/23 05:17:54;;;;;;;;;;;;;;;19.73;61.74;97967.06;5085548;28;19932;-60
2023/06/23 05:20:23;;;;;;;;;;;;;;;19.72;61.15;97971.78;5083698;28;20369;-60
2023/06/23 05:22:51;;;;;;;;;;;;;;;19.74;61.64;97979.66;5085940;28;19963;-60
2023/06/23 05:25:19;;;;;;;;;;;;;;;19.83;61.92;97967.22;5065744;28;20046;-59
2023/06/23 05:27:49;;;;;;;;;;;;;;;20.01;61.70;97967.47;5087643;28;19991;-59
2023/06/23 05:30:18;;;;;;;;;;;;;;;20.17;60.83;97967.31;5082580;28;20284;-60
2023/06/23 05:32:48;;;;;;;;;;;;;;;20.13;60.52;97985.75;5089863;28;20261;-59
2023/06/23 05:35:18;;;;;;;;;;;;;;;19.95;60.58;97982.75;5071193;28;19959;-59
2023/06/23 05:37:46;;;;;;;;;;;;;;;20.09;60.43;97987.69;5076527;28;19925;-59
2023/06/23 05:40:15;;;;;;;;;;;;;;;20.12;60.33;98000.72;5089032;28;20419;-59
2023/06/23 05:42:44;;;;;;;;;;;;;;;20.29;60.55;97999.38;5076942;28;20447;-59
2023/06/23 05:45:12;;;;;;;;;;;;;;;20.04;61.25;98001.81;5060553;28;20015;-59
2023/06/23 05:47:42;;;;;;;;;;;;;;;20.04;61.86;98004.56;5080589;28;20339;-59
2023/06/23 05:50:16;;;;;;;;;;;;;;;20.05;61.86;98006.16;5102700;28;19934;-59
2023/06/23 05:52:44;;;;;;;;;;;;;;;19.92;62.05;97990.97;5107725;28;19932;-59
2023/06/23 05:55:14;;;;;;;;;;;;;;;19.99;62.23;97997.41;5092088;28;19924;-59
2023/06/23 05:57:42;;;;;;;;;;;;;;;19.92;62.56;98008.31;5085966;28;19924;-59
2023/06/23 06:00:10;;;;;;;;;;;;;;;19.94;62.25;98010.69;5092263;28;20433;-59
2023/06/23 06:02:39;;;;;;;;;;;;;;;19.93;62.47;98026.44;5084077;28;20426;-59
2023/06/23 06:05:08;;;;;;;;;;;;;;;19.75;63.16;98023.41;5088673;28;19977;-59
2023/06/23 06:07:37;;;;;;;;;;;;;;;19.76;63.02;98036.03;5088132;28;19931;-59
2023/06/23 06:10:07;;;;;;;;;;;;;;;19.66;62.79;98044.91;5080263;28;20394;-59
2023/06/23 06:12:35;;;;;;;;;;;;;;;19.35;63.36;98046.69;5059776;28;20482;-59
2023/06/23 06:15:06;;;;;;;;;;;;;;;19.43;63.50;98031.09;5066593;28;19954;-59
2023/06/23 06:17:34;;;;;;;;;;;;;;;19.45;62.48;98044.53;5065105;28;20422;-59
2023/06/23 06:20:02;;;;;;;;;;;;;;;19.47;62.31;98064.22;5082088;28;19931;-59
2023/06/23 06:22:30;;;;;;;;;;;;;;;19.45;61.76;98059.09;5082832;28;19927;-60
2023/06/23 06:25:00;;;;;;;;;;;;;;;19.38;61.53;98062.47;5061713;28;19925;-60
2023/06/23 06:27:27;;;;;;;;;;;;;;;19.40;61.37;98070.41;5073992;28;19950;-59
2023/06/23 06:29:55;;;;;;;;;;;;;;;19.20;61.44;98083.41;5063201;28;20012;-59
2023/06/23 06:32:23;;;;;;;;;;;;;;;19.25;61.84;98088.63;5081038;28;19967;-59
2023/06/23 06:34:51;;;;;;;;;;;;;;;19.30;61.47;98109.56;5093477;28;19924;-59
2023/06/23 06:37:19;;;;;;;;;;;;;;;19.15;61.99;98086.44;5083314;28;19931;-59
2023/06/23 06:39:46;;;;;;;;;;;;;;;19.14;61.92;98098.63;5077203;28;19938;-59
2023/06/23 06:42:16;;;;;;;;;;;;;;;19.04;62.27;98096.47;5066705;28;19928;-59
2023/06/23 06:44:46;;;;;;;;;;;;;;;19.08;62.10;98091.81;5071230;28;19932;-59
2023/06/23 06:47:14;;;;;;;;;;;;;;;19.18;61.81;98106.97;5082173;28;20027;-59
2023/06/23 06:49:42;;;;;;;;;;;;;;;19.07;61.80;98115.03;5082289;28;19931;-59
2023/06/23 06:52:09;;;;;;;;;;;;;;;19.03;62.10;98116.91;5081688;28;19970;-59
2023/06/23 06:54:38;;;;;;;;;;;;;;;18.97;61.83;98119.13;5079118;28;19924;-59
2023/06/23 06:57:06;;;;;;;;;;;;;;;18.98;61.71;98130.94;5071910;28;20377;-59
2023/06/23 06:59:35;;;;;;;;;;;;;;;19.02;61.38;98116.09;5074694;28;20365;-59
2023/06/23 07:02:03;;;;;;;;;;;;;;;19.09;61.17;98115.44;5081214;28;20065;-59
2023/06/23 07:04:31;;;;;;;;;;;;;;;19.05;60.93;98114.56;5083578;28;19951;-59
2023/06/23 07:06:59;;;;;;;;;;;;;;;19.04;61.14;98130.28;5086018;28;19937;-60
2023/06/23 07:09:26;;;;;;;;;;;;;;;19.02;61.32;98131.81;5063859;28;19951;-59
2023/06/23 07:11:58;;;;;;;;;;;;;;;19.03;61.47;98134.22;5082303;28;20044;-59
2023/06/23 07:14:26;;;;;;;;;;;;;;;19.06;61.51;98135.44;5083723;28;19928;-59
2023/06/23 07:16:55;;;;;;;;;;;;;;;19.11;61.46;98135.13;5075911;28;19925;-59
2023/06/23 07:19:23;;;;;;;;;;;;;;;19.16;61.86;98153.34;5081693;28;20467;-59
2023/06/23 07:21:51;;;;;;;;;;;;;;;19.18;61.85;98143.56;5076532;28;19928;-59
2023/06/23 07:24:18;;;;;;;;;;;;;;;19.28;61.63;98148.50;5067598;28;20025;-59
2023/06/23 07:26:46;;;;;;;;;;;;;;;19.18;61.29;98156.56;5081706;28;19994;-59
2023/06/23 07:29:14;;;;;;;;;;;;;;;19.13;61.73;98157.63;5079746;28;19986;-59
2023/06/23 07:31:42;;;;;;;;;;;;;;;19.15;61.93;98162.75;5056093;28;20254;-59
2023/06/23 07:34:13;;;;;;;;;;;;;;;18.98;62.64;98170.28;5070951;28;19981;-59
2023/06/23 07:36:40;;;;;;;;;;;;;;;18.91;63.63;98170.16;5081339;28;19924;-59
2023/06/23 07:39:10;;;;;;;;;;;;;;;18.72;65.88;98178.34;5084104;28;19978;-60
2023/06/23 07:41:38;;;;;;;;;;;;;;;18.59;66.61;98170.19;5078796;28;19929;-60
2023/06/23 07:44:06;;;;;;;;;;;;;;;18.62;64.68;98163.16;5079386;28;19925;-60
2023/06/23 07:46:34;;;;;;;;;;;;;;;18.70;65.40;98175.97;5087398;28;19932;-60
2023/06/23 07:49:02;;;;;;;;;;;;;;;18.71;65.80;98172.06;5070751;28;20018;-59
2023/06/23 07:51:32;;;;;;;;;;;;;;;18.72;65.50;98173.63;5087425;28;19924;-59
2023/06/23 07:54:00;;;;;;;;;;;;;;;18.77;65.30;98169.81;5069359;28;19985;-60
2023/06/23 07:56:33;;;;;;;;;;;;;;;18.72;64.61;98170.09;5084811;28;19924;-60
2023/06/23 07:59:01;;;;;;;;;;;;;;;18.70;64.87;98175.16;5071614;28;19969;-60
2023/06/23 08:01:29;;;;;;;;;;;;;;;18.50;66.06;98172.31;5078829;28;20663;-60
2023/06/23 08:03:57;;;;;;;;;;;;;;;18.57;66.86;98177.19;5066584;28;20395;-60
2023/06/23 08:06:25;;;;;;;;;;;;;;;18.42;66.95;98178.00;5085731;28;19932;-60
2023/06/23 08:08:54;;;;;;;;;;;;;;;18.50;68.00;98177.03;5087236;28;19962;-60
2023/06/23 08:11:22;;;;;;;;;;;;;;;18.46;69.11;98189.88;5077132;28;20379;-59
2023/06/23 08:13:50;;;;;;;;;;;;;;;18.37;69.25;98194.78;5071750;28;19932;-60
2023/06/23 08:16:17;;;;;;;;;;;;;;;18.33;69.63;98192.75;5076299;28;19932;-60
2023/06/23 08:18:48;;;;;;;;;;;;;;;18.36;70.37;98196.72;5052610;28;19973;-60
2023/06/23 08:21:17;;;;;;;;;;;;;;;18.33;70.20;98197.44;5079633;28;20305;-59
2023/06/23 08:23:45;;;;;;;;;;;;;;;18.30;70.30;98198.94;5081976;28;19932;-59
2023/06/23 08:26:14;;;;;;;;;;;;;;;18.38;69.54;98201.91;5083100;28;20614;-64
2023/06/23 08:28:42;;;;;;;;;;;;;;;18.30;68.84;98201.69;5071668;28;19930;-60
2023/06/23 08:31:10;;;;;;;;;;;;;;;18.35;68.24;98205.34;5087400;28;19923;-60
2023/06/23 08:33:39;;;;;;;;;;;;;;;18.32;67.75;98202.16;5098847;28;19925;-60
2023/06/23 08:36:07;;;;;;;;;;;;;;;18.33;67.85;98211.22;5081051;28;19928;-60
2023/06/23 08:38:34;;;;;;;;;;;;;;;18.23;67.94;98209.78;5093132;28;20430;-60
2023/06/23 08:41:02;;;;;;;;;;;;;;;18.29;66.88;98213.84;5089227;28;19935;-61
2023/06/23 08:43:32;;;;;;;;;;;;;;;18.39;66.71;98215.28;5086624;28;19931;-60
2023/06/23 08:46:00;;;;;;;;;;;;;;;18.57;66.06;98205.50;5082666;28;19975;-60
2023/06/23 08:48:28;;;;;;;;;;;;;;;18.63;65.29;98211.53;5080233;28;19928;-60
2023/06/23 08:50:56;;;;;;;;;;;;;;;18.80;64.96;98216.69;5088279;28;20003;-60
2023/06/23 08:53:24;;;;;;;;;;;;;;;18.77;64.68;98231.16;5082155;28;20041;-60
2023/06/23 08:55:52;;;;;;;;;;;;;;;18.70;63.91;98227.47;5085068;28;20415;-60
2023/06/23 08:58:20;;;;;;;;;;;;;;;18.77;64.04;98224.88;5084389;28;19959;-61
2023/06/23 09:00:50;;;;;;;;;;;;;;;18.61;64.08;98238.59;5082171;28;19924;-60
2023/06/23 09:03:18;;;;;;;;;;;;;;;18.73;63.98;98232.22;5076718;28;20014;-61
2023/06/23 09:05:46;;;;;;;;;;;;;;;18.73;63.55;98232.22;5061396;28;20033;-60
2023/06/23 09:08:13;;;;;;;;;;;;;;;18.86;63.19;98244.75;5069192;28;19928;-60
2023/06/23 09:10:41;;;;;;;;;;;;;;;19.13;62.51;98243.00;5080165;28;19985;-60
2023/06/23 09:13:20;;;;;;;;;;;;;;;19.19;62.42;98247.06;5078120;28;19932;-60
2023/06/23 09:15:49;;;;;;;;;;;;;;;19.22;60.68;98256.56;5090780;28;20365;-60
2023/06/23 09:18:32;;;;;;;;;;;;;;;19.04;61.33;98251.44;5079264;28;20020;-60
2023/06/23 09:21:01;;;;;;;;;;;;;;;19.04;61.64;98261.66;5086947;28;19933;-60
2023/06/23 09:23:31;;;;;;;;;;;;;;;18.84;61.20;98275.38;5078748;28;19960;-60
2023/06/23 09:26:02;;;;;;;;;;;;;;;18.99;61.29;98286.72;5064202;28;19985;-60
2023/06/23 09:28:30;;;;;;;;;;;;;;;18.80;61.50;98280.00;5083599;28;19936;-60
2023/06/23 09:31:00;;;;;;;;;;;;;;;18.87;62.25;98278.56;5087162;28;19947;-61
2023/06/23 09:33:28;;;;;;;;;;;;;;;18.91;61.48;98279.44;5092304;28;20015;-60
2023/06/23 09:35:56;;;;;;;;;;;;;;;18.94;61.73;98298.00;5061445;28;19944;-61
2023/06/23 09:38:24;;;;;;;;;;;;;;;18.90;60.98;98294.38;5066251;28;19924;-60
2023/06/23 09:41:03;;;;;;;;;;;;;;;18.80;61.31;98290.19;5094257;28;19924;-61
2023/06/23 09:43:31;;;;;;;;;;;;;;;18.79;60.93;98292.16;5076028;28;19925;-61
2023/06/23 09:46:05;;;;;;;;;;;;;;;18.71;61.09;98298.66;5082609;28;19924;-60
2023/06/23 09:48:33;;;;;;;;;;;;;;;18.72;60.68;98283.72;5081207;28;19924;-60
2023/06/23 09:51:02;;;;;;;;;;;;;;;18.86;60.43;98299.00;5086809;28;19928;-61
2023/06/23 09:53:31;;;;;;;;;;;;;;;18.73;60.54;98304.59;5082419;28;19928;-60
2023/06/23 09:56:00;;;;;;;;;;;;;;;18.86;60.65;98304.50;5085972;28;20478;-60
2023/06/23 09:58:36;;;;;;;;;;;;;;;19.00;60.03;98315.84;5088097;28;20031;-60
2023/06/23 10:01:07;;;;;;;;;;;;;;;18.97;60.06;98317.38;5067214;28;19929;-61
2023/06/23 10:03:42;;;;;;;;;;;;;;;18.96;59.49;98310.28;5094114;28;19928;-60
2023/06/23 10:06:10;;;;;;;;;;;;;;;18.86;60.49;98312.78;5089539;28;19924;-60
2023/06/23 10:08:39;;;;;;;;;;;;;;;18.76;59.91;98316.84;5074191;28;19929;-60
2023/06/23 10:11:07;;;;;;;;;;;;;;;18.79;60.58;98316.91;5078991;28;20336;-60
2023/06/23 10:13:35;;;;;;;;;;;;;;;18.87;59.78;98319.88;5086154;28;19928;-60
2023/06/23 10:16:02;;;;;;;;;;;;;;;19.04;60.57;98327.75;5087435;28;19928;-60
2023/06/23 10:18:33;;;;;;;;;;;;;;;19.11;59.80;98328.72;5076877;28;19988;-61
2023/06/23 10:21:01;;;;;;;;;;;;;;;18.90;59.02;98338.41;5078044;28;19982;-60
2023/06/23 10:23:29;;;;;;;;;;;;;;;18.84;59.48;98340.63;5088215;28;20296;-60
2023/06/23 10:25:57;;;;;;;;;;;;;;;18.58;59.93;98338.38;5077097;28;19924;-63
2023/06/23 10:28:25;;;;;;;;;;;;;;;18.56;60.25;98352.50;5078495;28;19925;-61
2023/06/23 10:30:53;;;;;;;;;;;;;;;18.59;60.07;98346.28;5080772;28;20050;-60
2023/06/23 10:33:21;;;;;;;;;;;;;;;18.55;60.12;98348.16;5065093;28;20031;-60
2023/06/23 10:35:51;;;;;;;;;;;;;;;18.58;60.90;98352.13;5084979;28;19925;-60
2023/06/23 10:38:23;;;;;;;;;;;;;;;18.49;60.17;98359.78;5083633;28;19971;-60
2023/06/23 10:40:53;;;;;;;;;;;;;;;18.36;60.41;98352.72;5081294;28;20050;-61
2023/06/23 10:43:21;;;;;;;;;;;;;;;18.45;60.92;98334.09;5081932;28;20009;-61
2023/06/23 10:45:49;;;;;;;;;;;;;;;18.54;60.56;98345.75;5086839;28;19928;-61
2023/06/23 10:48:18;;;;;;;;;;;;;;;18.54;60.47;98348.50;5084553;28;20307;-60
2023/06/23 10:50:46;;;;;;;;;;;;;;;18.49;60.27;98362.53;5065080;28;20367;-61
2023/06/23 10:53:17;;;;;;;;;;;;;;;18.48;60.59;98347.13;5087336;28;19977;-61
2023/06/23 10:55:45;;;;;;;;;;;;;;;18.49;60.41;98357.81;5088903;28;19932;-60
2023/06/23 10:58:38;;;;;;;;;;;;;;;18.50;60.26;98342.09;5096709;28;20393;-60
2023/06/23 11:01:06;;;;;;;;;;;;;;;18.49;60.24;98357.81;5085231;28;19924;-61
2023/06/23 11:03:34;;;;;;;;;;;;;;;18.57;60.37;98365.09;5089738;28;20336;-60
2023/06/23 11:06:04;;;;;;;;;;;;;;;18.54;60.51;98365.81;5074824;28;20425;-61
2023/06/23 11:08:35;;;;;;;;;;;;;;;18.60;60.17;98358.09;5070743;28;19970;-60
2023/06/23 11:11:04;;;;;;;;;;;;;;;18.66;60.30;98355.88;5081820;28;20292;-61
2023/06/23 11:13:37;;;;;;;;;;;;;;;18.63;60.27;98357.38;5069521;28;19935;-60
2023/06/23 11:16:05;;;;;;;;;;;;;;;18.72;60.02;98360.78;5082588;28;20270;-61
2023/06/23 11:18:35;;;;;;;;;;;;;;;18.66;60.22;98362.19;5086132;28;19924;-61
2023/06/23 11:21:03;;;;;;;;;;;;;;;18.72;59.95;98363.53;5081520;28;19955;-61
2023/06/23 11:23:33;;;;;;;;;;;;;;;18.75;59.75;98371.09;5073638;28;19973;-61
2023/06/23 11:26:02;;;;;;;;;;;;;;;18.76;59.87;98369.94;5088501;28;19924;-61
2023/06/23 11:28:33;;;;;;;;;;;;;;;18.81;59.62;98374.41;5067840;28;19943;-60
2023/06/23 11:31:03;;;;;;;;;;;;;;;18.80;59.78;98381.03;5080275;28;19928;-60
2023/06/23 11:33:34;;;;;;;;;;;;;;;18.88;59.63;98376.53;5083000;28;19947;-60
2023/06/23 11:36:03;;;;;;;;;;;;;;;18.86;59.35;98387.09;5085838;28;19928;-60
2023/06/23 11:38:31;;;;;;;;;;;;;;;18.76;59.25;98378.22;5084643;28;19970;-60
2023/06/23 11:40:59;;;;;;;;;;;;;;;18.68;59.72;98387.41;5085253;28;19932;-60
2023/06/23 11:43:28;;;;;;;;;;;;;;;18.55;59.69;98380.38;5075301;28;19932;-60
2023/06/23 11:45:56;;;;;;;;;;;;;;;18.59;59.72;98384.03;5045800;28;19962;-60
2023/06/23 11:48:26;;;;;;;;;;;;;;;18.68;59.90;98390.16;5078115;28;19928;-60
2023/06/23 11:50:55;;;;;;;;;;;;;;;18.69;59.47;98390.97;5081702;28;19974;-61
2023/06/23 11:53:23;;;;;;;;;;;;;;;18.55;59.23;98385.88;5079677;28;20414;-60
2023/06/23 11:55:51;;;;;;;;;;;;;;;18.56;59.38;98390.22;5082011;28;19924;-60
2023/06/23 11:58:18;;;;;;;;;;;;;;;18.55;59.21;98391.38;5081446;28;19974;-61
2023/06/23 12:00:48;;;;;;;;;;;;;;;18.58;59.30;98385.16;5084688;28;19928;-60
2023/06/23 12:03:16;;;;;;;;;;;;;;;18.53;59.46;98388.16;5083814;28;20390;-60
2023/06/23 12:05:44;;;;;;;;;;;;;;;18.59;59.23;98397.78;5088855;28;20030;-61
2023/06/23 12:08:13;;;;;;;;;;;;;;;18.57;59.08;98397.31;5104837;28;19928;-61
2023/06/23 12:10:41;;;;;;;;;;;;;;;18.52;59.49;98409.38;5080027;28;19931;-60
2023/06/23 12:13:09;;;;;;;;;;;;;;;18.56;59.68;98401.22;5087723;28;19975;-60
2023/06/23 12:15:40;;;;;;;;;;;;;;;18.55;59.83;98413.38;5086815;28;19928;-60
2023/06/23 12:18:10;;;;;;;;;;;;;;;18.44;59.98;98420.53;5069835;28;19932;-60
2023/06/23 12:20:38;;;;;;;;;;;;;;;18.43;60.09;98430.75;5082397;28;19982;-60
2023/06/23 12:23:06;;;;;;;;;;;;;;;18.42;60.24;98409.88;5082780;28;20408;-60
2023/06/23 12:25:35;;;;;;;;;;;;;;;18.40;60.22;98411.38;5069226;28;19951;-60
2023/06/23 12:28:04;;;;;;;;;;;;;;;18.22;60.62;98432.91;5080760;28;20270;-60
2023/06/23 12:30:38;;;;;;;;;;;;;;;18.27;60.49;98427.16;5089720;28;19953;-60
2023/06/23 12:33:06;;;;;;;;;;;;;;;18.29;60.10;98430.34;5070853;28;19924;-60
2023/06/23 12:35:35;;;;;;;;;;;;;;;18.29;60.23;98439.38;5088786;28;20467;-60
2023/06/23 12:38:04;;;;;;;;;;;;;;;18.22;59.90;98436.44;5084951;28;19955;-60
2023/06/23 12:40:32;;;;;;;;;;;;;;;18.30;60.05;98438.22;5068596;28;20707;-61
2023/06/23 12:43:01;;;;;;;;;;;;;;;18.26;59.83;98440.06;5088362;28;21627;-60
2023/06/23 12:45:29;;;;;;;;;;;;;;;18.31;60.08;98437.09;5090316;28;20327;-61
2023/06/23 12:47:57;;;;;;;;;;;;;;;18.28;59.71;98442.50;5092055;28;19924;-60
2023/06/23 12:50:28;;;;;;;;;;;;;;;18.22;59.96;98455.69;5066993;28;19928;-61
2023/06/23 12:53:06;;;;;;;;;;;;;;;18.24;60.14;98447.88;5083542;28;19967;-60
2023/06/23 12:55:34;;;;;;;;;;;;;;;18.16;60.44;98453.50;5085323;28;19931;-60
2023/06/23 12:58:02;;;;;;;;;;;;;;;18.19;60.55;98463.84;5089336;28;19928;-61
2023/06/23 13:00:29;;;;;;;;;;;;;;;18.01;61.24;98464.09;5075841;28;20415;-61